sensor_id;sensor_type;location;lat;lon;timestamp;pressure;altitude;pressure_sealevel;temperature;humidity
22018;BME280;11173;51.050;7.108;2023-06-14T00:01:49;99257.16;;;16.62;40.90
22018;BME280;11173;51.050;7.108;2023-06-14T00:11:49;99257.50;;;16.45;39.64
22018;BME280;11173;51.050;7.108;2023-06-14T00:21:49;99266.25;;;16.38;40.61
22018;BME280;11173;51.050;7.108;2023-06-14T00:31:51;99273.91;;;16.28;40.07
22018;BME280;11173;51.050;7.108;2023-06-14T00:41:52;99276.41;;;16.17;40.28
22018;BME280;11173;51.050;7.108;2023-06-14T00:51:52;99280.31;;;16.01;41.00
22018;BME280;11173;51.050;7.108;2023-06-14T01:01:53;99281.53;;;15.91;41.99
22018;BME280;11173;51.050;7.108;2023-06-14T01:11:59;99293.09;;;15.84;41.71
22018;BME280;11173;51.050;7.108;2023-06-14T01:22:01;99283.84;;;15.74;41.35
22018;BME280;11173;51.050;7.108;2023-06-14T01:32:03;99282.72;;;15.62;41.31
22018;BME280;11173;51.050;7.108;2023-06-14T01:42:04;99291.41;;;15.55;41.49
22018;BME280;11173;51.050;7.108;2023-06-14T01:52:06;99295.00;;;15.46;41.60
22018;BME280;11173;51.050;7.108;2023-06-14T02:02:09;99300.72;;;15.34;41.65
22018;BME280;11173;51.050;7.108;2023-06-14T02:12:10;99289.91;;;15.23;42.24
22018;BME280;11173;51.050;7.108;2023-06-14T02:22:11;99293.78;;;15.16;41.60
22018;BME280;11173;51.050;7.108;2023-06-14T02:32:11;99295.78;;;15.06;41.42
22018;BME280;11173;51.050;7.108;2023-06-14T02:42:11;99308.38;;;15.02;42.50
22018;BME280;11173;51.050;7.108;2023-06-14T02:52:12;99304.94;;;14.98;41.88
22018;BME280;11173;51.050;7.108;2023-06-14T03:02:12;99313.66;;;15.00;42.70
22018;BME280;11173;51.050;7.108;2023-06-14T03:12:13;99323.63;;;15.01;42.58
22018;BME280;11173;51.050;7.108;2023-06-14T03:22:13;99324.56;;;14.98;41.83
22018;BME280;11173;51.050;7.108;2023-06-14T03:32:13;99335.16;;;15.03;42.75
22018;BME280;11173;51.050;7.108;2023-06-14T03:42:14;99333.94;;;15.04;41.99
22018;BME280;11173;51.050;7.108;2023-06-14T03:52:14;99345.16;;;15.04;42.86
22018;BME280;11173;51.050;7.108;2023-06-14T04:02:16;99345.16;;;15.04;42.57
22018;BME280;11173;51.050;7.108;2023-06-14T04:12:17;99352.44;;;15.23;42.64
22018;BME280;11173;51.050;7.108;2023-06-14T04:22:18;99364.00;;;16.34;41.26
22018;BME280;11173;51.050;7.108;2023-06-14T04:32:18;99377.13;;;17.54;38.52
22018;BME280;11173;51.050;7.108;2023-06-14T04:42:25;99381.81;;;18.38;37.17
22018;BME280;11173;51.050;7.108;2023-06-14T04:52:31;99397.38;;;19.26;36.74
22018;BME280;11173;51.050;7.108;2023-06-14T05:02:31;99412.44;;;19.83;35.28
22018;BME280;11173;51.050;7.108;2023-06-14T05:12:32;99413.88;;;20.29;35.11
22018;BME280;11173;51.050;7.108;2023-06-14T05:22:32;99426.47;;;20.69;33.78
22018;BME280;11173;51.050;7.108;2023-06-14T05:32:32;99413.75;;;21.05;33.80
22018;BME280;11173;51.050;7.108;2023-06-14T05:42:33;99420.13;;;21.26;33.16
22018;BME280;11173;51.050;7.108;2023-06-14T05:52:34;99428.78;;;21.43;33.53
22018;BME280;11173;51.050;7.108;2023-06-14T06:02:35;99434.25;;;21.78;32.85
22018;BME280;11173;51.050;7.108;2023-06-14T06:12:36;99439.03;;;21.98;32.63
22018;BME280;11173;51.050;7.108;2023-06-14T06:22:36;99441.06;;;21.98;32.51
22018;BME280;11173;51.050;7.108;2023-06-14T06:32:36;99445.56;;;22.16;32.36
22018;BME280;11173;51.050;7.108;2023-06-14T06:42:37;99462.94;;;22.23;31.79
22018;BME280;11173;51.050;7.108;2023-06-14T06:52:37;99471.25;;;22.33;31.55
22018;BME280;11173;51.050;7.108;2023-06-14T07:02:38;99477.47;;;22.37;31.68
22018;BME280;11173;51.050;7.108;2023-06-14T07:12:38;99490.25;;;21.89;31.45
22018;BME280;11173;51.050;7.108;2023-06-14T07:22:41;99491.09;;;20.91;30.84
22018;BME280;11173;51.050;7.108;2023-06-14T07:32:41;99499.13;;;20.57;31.60
22018;BME280;11173;51.050;7.108;2023-06-14T07:42:42;99498.00;;;20.34;30.40
22018;BME280;11173;51.050;7.108;2023-06-14T07:52:42;99498.22;;;20.30;30.34
22018;BME280;11173;51.050;7.108;2023-06-14T08:02:43;99493.28;;;20.25;29.02
22018;BME280;11173;51.050;7.108;2023-06-14T08:12:43;99487.72;;;20.16;28.61
22018;BME280;11173;51.050;7.108;2023-06-14T08:22:44;99483.59;;;20.32;28.91
22018;BME280;11173;51.050;7.108;2023-06-14T08:32:46;99492.16;;;20.37;29.69
22018;BME280;11173;51.050;7.108;2023-06-14T08:42:52;99503.34;;;20.46;29.06
22018;BME280;11173;51.050;7.108;2023-06-14T08:52:58;99496.97;;;20.52;29.19
22018;BME280;11173;51.050;7.108;2023-06-14T09:03:02;99496.41;;;20.48;30.30
22018;BME280;11173;51.050;7.108;2023-06-14T09:13:03;99493.47;;;20.57;30.30
22018;BME280;11173;51.050;7.108;2023-06-14T09:23:04;99489.41;;;20.63;30.60
22018;BME280;11173;51.050;7.108;2023-06-14T09:33:05;99493.00;;;20.79;30.79
22018;BME280;11173;51.050;7.108;2023-06-14T09:43:06;99512.59;;;21.03;31.22
22018;BME280;11173;51.050;7.108;2023-06-14T09:53:11;99497.94;;;21.04;31.78
22018;BME280;11173;51.050;7.108;2023-06-14T10:03:13;99501.75;;;21.01;31.84
22018;BME280;11173;51.050;7.108;2023-06-14T10:13:14;99503.59;;;21.04;32.00
22018;BME280;11173;51.050;7.108;2023-06-14T10:23:18;99498.53;;;21.14;30.20
22018;BME280;11173;51.050;7.108;2023-06-14T10:33:20;99495.97;;;21.37;31.19
22018;BME280;11173;51.050;7.108;2023-06-14T10:43:24;99489.81;;;21.64;31.06
22018;BME280;11173;51.050;7.108;2023-06-14T10:53:24;99497.03;;;21.65;31.43
22018;BME280;11173;51.050;7.108;2023-06-14T11:03:42;99494.41;;;21.62;32.33
22018;BME280;11173;51.050;7.108;2023-06-14T11:13:45;99487.06;;;21.76;31.69
22018;BME280;11173;51.050;7.108;2023-06-14T11:23:52;99491.19;;;21.75;31.46
22018;BME280;11173;51.050;7.108;2023-06-14T11:33:54;99485.50;;;21.75;30.74
22018;BME280;11173;51.050;7.108;2023-06-14T11:43:56;99477.81;;;21.81;30.76
22018;BME280;11173;51.050;7.108;2023-06-14T11:53:56;99470.97;;;21.93;30.43
22018;BME280;11173;51.050;7.108;2023-06-14T12:03:58;99478.47;;;22.02;27.32
22018;BME280;11173;51.050;7.108;2023-06-14T12:13:59;99478.41;;;22.22;28.93
22018;BME280;11173;51.050;7.108;2023-06-14T12:24:03;99467.94;;;22.02;28.11
22018;BME280;11173;51.050;7.108;2023-06-14T12:34:04;99481.09;;;22.05;29.85
22018;BME280;11173;51.050;7.108;2023-06-14T12:44:04;99482.59;;;22.33;29.41
22018;BME280;11173;51.050;7.108;2023-06-14T12:54:05;99492.13;;;22.30;29.84
22018;BME280;11173;51.050;7.108;2023-06-14T13:04:05;99485.44;;;22.33;30.43
22018;BME280;11173;51.050;7.108;2023-06-14T13:14:06;99489.66;;;22.49;30.24
22018;BME280;11173;51.050;7.108;2023-06-14T13:24:06;99492.53;;;22.60;29.69
22018;BME280;11173;51.050;7.108;2023-06-14T13:34:07;99493.13;;;22.75;29.56
22018;BME280;11173;51.050;7.108;2023-06-14T13:44:07;99495.22;;;22.80;28.82
22018;BME280;11173;51.050;7.108;2023-06-14T13:54:08;99491.47;;;23.00;28.85
22018;BME280;11173;51.050;7.108;2023-06-14T14:04:08;99499.22;;;23.06;29.01
22018;BME280;11173;51.050;7.108;2023-06-14T14:14:09;99504.81;;;22.89;28.54
22018;BME280;11173;51.050;7.108;2023-06-14T14:24:10;99483.09;;;22.86;28.96
22018;BME280;11173;51.050;7.108;2023-06-14T14:34:11;99494.59;;;23.19;29.13
22018;BME280;11173;51.050;7.108;2023-06-14T14:44:12;99499.56;;;23.47;27.34
22018;BME280;11173;51.050;7.108;2023-06-14T14:54:12;99499.28;;;23.34;27.86
22018;BME280;11173;51.050;7.108;2023-06-14T15:04:13;99515.06;;;23.35;27.93
22018;BME280;11173;51.050;7.108;2023-06-14T15:14:13;99490.56;;;23.66;28.35
22018;BME280;11173;51.050;7.108;2023-06-14T15:24:15;99505.56;;;23.94;27.81
22018;BME280;11173;51.050;7.108;2023-06-14T15:34:15;99521.59;;;23.75;27.78
22018;BME280;11173;51.050;7.108;2023-06-14T15:44:15;99508.59;;;23.40;27.11
22018;BME280;11173;51.050;7.108;2023-06-14T15:54:16;99506.28;;;23.38;28.06
22018;BME280;11173;51.050;7.108;2023-06-14T16:04:16;99507.28;;;23.35;27.75
22018;BME280;11173;51.050;7.108;2023-06-14T16:25:05;99499.88;;;23.72;27.62
22018;BME280;11173;51.050;7.108;2023-06-14T16:35:07;99505.56;;;23.94;27.39
22018;BME280;11173;51.050;7.108;2023-06-14T16:45:07;99512.03;;;23.72;27.16
22018;BME280;11173;51.050;7.108;2023-06-14T16:55:08;99511.25;;;23.60;26.82
22018;BME280;11173;51.050;7.108;2023-06-14T17:05:08;99517.13;;;23.46;26.86
22018;BME280;11173;51.050;7.108;2023-06-14T17:15:09;99528.75;;;23.36;26.91
22018;BME280;11173;51.050;7.108;2023-06-14T17:25:10;99519.47;;;23.47;27.20
22018;BME280;11173;51.050;7.108;2023-06-14T17:35:10;99521.84;;;24.28;26.65
22018;BME280;11173;51.050;7.108;2023-06-14T17:45:13;99532.16;;;25.76;24.87
22018;BME280;11173;51.050;7.108;2023-06-14T17:55:14;99537.59;;;27.08;25.13
22018;BME280;11173;51.050;7.108;2023-06-14T18:05:14;99542.91;;;27.93;23.47
22018;BME280;11173;51.050;7.108;2023-06-14T18:15:15;99544.72;;;28.10;23.45
22018;BME280;11173;51.050;7.108;2023-06-14T18:25:16;99566.13;;;27.90;23.11
22018;BME280;11173;51.050;7.108;2023-06-14T18:35:20;99568.22;;;27.70;22.73
22018;BME280;11173;51.050;7.108;2023-06-14T18:45:20;99572.50;;;27.45;23.52
22018;BME280;11173;51.050;7.108;2023-06-14T18:55:20;99579.06;;;26.96;23.40
22018;BME280;11173;51.050;7.108;2023-06-14T19:05:21;99582.16;;;25.83;23.87
22018;BME280;11173;51.050;7.108;2023-06-14T19:15:22;99599.00;;;24.24;25.67
22018;BME280;11173;51.050;7.108;2023-06-14T19:25:22;99598.97;;;22.70;27.98
22018;BME280;11173;51.050;7.108;2023-06-14T19:35:23;99610.00;;;21.52;29.16
22018;BME280;11173;51.050;7.108;2023-06-14T19:45:23;99614.63;;;20.58;31.02
22018;BME280;11173;51.050;7.108;2023-06-14T19:55:25;99625.78;;;19.87;32.75
22018;BME280;11173;51.050;7.108;2023-06-14T20:05:27;99637.66;;;19.38;33.07
22018;BME280;11173;51.050;7.108;2023-06-14T20:15:28;99652.00;;;19.01;33.41
22018;BME280;11173;51.050;7.108;2023-06-14T20:25:28;99659.25;;;18.59;35.29
22018;BME280;11173;51.050;7.108;2023-06-14T20:35:28;99664.66;;;18.20;35.90
22018;BME280;11173;51.050;7.108;2023-06-14T20:45:29;99659.56;;;17.82;36.46
22018;BME280;11173;51.050;7.108;2023-06-14T20:55:31;99678.03;;;17.64;35.99
22018;BME280;11173;51.050;7.108;2023-06-14T21:05:32;99680.63;;;17.40;36.37
22018;BME280;11173;51.050;7.108;2023-06-14T21:15:33;99691.38;;;17.14;37.07
22018;BME280;11173;51.050;7.108;2023-06-14T21:25:34;99692.44;;;16.98;38.47
22018;BME280;11173;51.050;7.108;2023-06-14T21:35:37;99689.25;;;16.87;37.68
22018;BME280;11173;51.050;7.108;2023-06-14T21:45:40;99689.28;;;16.65;39.79
22018;BME280;11173;51.050;7.108;2023-06-14T21:55:43;99699.75;;;16.55;39.60
22018;BME280;11173;51.050;7.108;2023-06-14T22:05:47;99705.13;;;16.40;39.85
22018;BME280;11173;51.050;7.108;2023-06-14T22:15:49;99705.66;;;16.26;40.89
22018;BME280;11173;51.050;7.108;2023-06-14T22:25:51;99704.47;;;16.14;42.09
22018;BME280;11173;51.050;7.108;2023-06-14T22:35:51;99703.31;;;16.02;42.35
22018;BME280;11173;51.050;7.108;2023-06-14T22:45:51;99712.34;;;15.97;44.75
22018;BME280;11173;51.050;7.108;2023-06-14T22:55:54;99703.81;;;15.88;42.82
22018;BME280;11173;51.050;7.108;2023-06-14T23:05:54;99714.16;;;15.78;42.33
22018;BME280;11173;51.050;7.108;2023-06-14T23:15:58;99709.72;;;15.68;44.25
22018;BME280;11173;51.050;7.108;2023-06-14T23:25:58;99701.78;;;15.54;47.08
22018;BME280;11173;51.050;7.108;2023-06-14T23:36:00;99703.59;;;15.47;44.21
22018;BME280;11173;51.050;7.108;2023-06-14T23:46:02;99703.28;;;15.33;45.19
22018;BME280;11173;51.050;7.108;2023-06-14T23:56:03;99700.41;;;15.23;47.81
